Terminal Aerodrome Forecast
Issued by NWS New Orleans/Baton Rouge, LA

Home | Current Version | Previous Version | Text Only | Print | Product List | Glossary On
Versions: 1 2 3 4 5 6 7 8 9 10 11 12 13
000
FTUS44 KLIX 202341
TAFNEW
TAF
KNEW 202341Z 2100/2124 10011KT P6SM SCT035 BKN040 OVC090
     FM210200 12008KT P6SM FEW070 SCT120
      TEMPO 2110/2114 4SM BR
     FM211400 12010KT P6SM BKN110
     FM212200 12011KT P6SM BKN025=

USA.gov is the U.S. government's official web portal to all federal, state and local government web resources and services.